Time;durP1;ratioP1;P1;durP2;ratioP2;P2;SDS_P1;SDS_P2;PMS_P1;PMS_P2;Temp;Humidity;BMP_temperature;BMP_pressure;BME280_temperature;BME280_humidity;BME280_pressure;Samples;Min_cycle;Max_cycle;Signal;HPM_P1;HPM_P2
2022/12/03 00:02:26;;;;;;;97.03;41.83;;;;;;;-0.24;88.77;99765.78;2280895;78;20930;-81
2022/12/03 00:05:26;;;;;;;96.17;40.90;;;;;;;-0.22;88.90;99765.48;2280532;78;20961;-81
2022/12/03 00:08:27;;;;;;;103.17;40.53;;;;;;;-0.18;89.11;99765.30;2280640;78;20914;-81
2022/12/03 00:11:27;;;;;;;110.27;43.13;;;;;;;-0.12;89.04;99773.03;2280167;78;21095;-81
2022/12/03 00:14:28;;;;;;;99.77;44.47;;;;;;;-0.17;88.82;99767.98;2280247;78;20934;-82
2022/12/03 00:17:28;;;;;;;104.50;43.13;;;;;;;-0.18;88.89;99764.02;2280605;78;20934;-81
2022/12/03 00:20:28;;;;;;;113.40;43.30;;;;;;;-0.19;88.74;99768.66;2280644;78;20910;-81
2022/12/03 00:23:29;;;;;;;112.03;46.13;;;;;;;-0.21;88.82;99769.83;2280519;78;20895;-81
2022/12/03 00:26:29;;;;;;;117.20;47.83;;;;;;;-0.16;88.92;99771.04;2280277;78;20891;-81
2022/12/03 00:29:30;;;;;;;113.03;45.10;;;;;;;-0.10;88.92;99771.84;2280559;78;20903;-82
2022/12/03 00:32:30;;;;;;;106.63;44.20;;;;;;;-0.11;88.80;99777.77;2280562;78;20907;-81
2022/12/03 00:35:30;;;;;;;104.10;42.90;;;;;;;-0.18;88.62;99777.74;2280293;78;20966;-82
2022/12/03 00:38:31;;;;;;;109.10;44.47;;;;;;;-0.20;88.74;99775.47;2280223;78;20898;-80
2022/12/03 00:41:31;;;;;;;111.70;48.33;;;;;;;-0.14;88.81;99772.03;2279756;78;20918;-81
2022/12/03 00:44:32;;;;;;;116.70;45.40;;;;;;;-0.11;88.68;99772.64;2279941;78;21259;-80
2022/12/03 00:47:32;;;;;;;101.27;43.47;;;;;;;-0.12;88.69;99775.59;2280195;78;20931;-80
2022/12/03 00:50:35;;;;;;;124.77;48.87;;;;;;;-0.08;88.67;99762.58;2279940;78;20943;-81
2022/12/03 00:53:36;;;;;;;106.77;46.80;;;;;;;-0.09;88.62;99766.82;2280072;78;20935;-80
2022/12/03 00:56:36;;;;;;;117.30;47.63;;;;;;;-0.06;88.60;99773.45;2280233;78;20899;-81
2022/12/03 00:59:37;;;;;;;101.97;45.57;;;;;;;-0.04;88.47;99770.59;2279671;78;20946;-81
2022/12/03 01:02:37;;;;;;;124.23;53.93;;;;;;;-0.02;88.61;99770.30;2279696;78;20938;-80
2022/12/03 01:05:37;;;;;;;109.90;45.90;;;;;;;0.01;88.41;99768.77;2279893;78;20961;-81
2022/12/03 01:08:38;;;;;;;126.87;50.33;;;;;;;0.01;88.32;99770.05;2280047;78;20931;-81
2022/12/03 01:11:40;;;;;;;112.77;44.63;;;;;;;0.01;88.59;99767.09;2280107;78;20926;-81
2022/12/03 01:14:39;;;;;;;123.30;48.90;;;;;;;-0.01;88.36;99766.95;2279817;78;21029;-80
2022/12/03 01:17:39;;;;;;;117.13;44.67;;;;;;;-0.01;88.40;99761.81;2279890;78;20978;-80
2022/12/03 01:20:42;;;;;;;113.10;47.50;;;;;;;0.02;88.45;99757.71;2280006;78;20895;-80
2022/12/03 01:23:43;;;;;;;109.37;46.93;;;;;;;0.02;88.29;99755.14;2280031;78;20895;-81
2022/12/03 01:26:43;;;;;;;109.83;45.50;;;;;;;0.01;88.32;99752.08;2279784;78;20903;-80
2022/12/03 01:29:44;;;;;;;115.97;47.33;;;;;;;0.04;88.42;99753.17;2280116;78;21337;-80
2022/12/03 01:32:44;;;;;;;112.00;48.10;;;;;;;0.08;88.41;99756.84;2280191;78;20899;-81
2022/12/03 01:35:45;;;;;;;112.60;44.93;;;;;;;0.09;88.25;99753.48;2280053;78;20942;-80
2022/12/03 01:38:45;;;;;;;108.73;45.27;;;;;;;0.08;88.38;99752.59;2280293;78;20903;-80
2022/12/03 01:41:45;;;;;;;118.00;46.40;;;;;;;0.12;88.31;99749.84;2280459;78;20934;-80
2022/12/03 01:44:46;;;;;;;114.53;45.90;;;;;;;0.11;88.14;99750.63;2280379;78;21247;-80
2022/12/03 01:47:46;;;;;;;107.17;45.43;;;;;;;0.10;88.19;99747.56;2280156;78;21274;-80
2022/12/03 01:50:51;;;;;;;112.03;44.87;;;;;;;0.08;88.20;99750.03;2280290;78;20883;-81
2022/12/03 01:53:49;;;;;;;114.53;47.30;;;;;;;0.11;88.34;99748.06;2259362;78;20922;-81
2022/12/03 01:56:49;;;;;;;108.47;47.70;;;;;;;0.07;88.17;99757.63;2280411;78;21247;-80
2022/12/03 01:59:50;;;;;;;109.63;44.23;;;;;;;0.11;88.38;99751.91;2280091;78;21017;-81
2022/12/03 02:02:50;;;;;;;114.93;47.60;;;;;;;0.13;88.24;99757.64;2280814;78;20946;-81
2022/12/03 02:05:55;;;;;;;105.20;45.20;;;;;;;0.11;88.07;99754.08;2280608;78;21329;-81
2022/12/03 02:08:58;;;;;;;110.27;46.00;;;;;;;0.10;88.20;99755.27;2259226;78;20887;-82
2022/12/03 02:11:53;;;;;;;113.70;45.93;;;;;;;0.08;88.24;99759.41;2280602;78;21293;-82
2022/12/03 02:14:54;;;;;;;110.43;46.73;;;;;;;0.11;88.33;99754.48;2280736;78;20931;-81
2022/12/03 02:17:54;;;;;;;123.70;48.13;;;;;;;0.13;88.24;99747.77;2280666;78;20949;-81
2022/12/03 02:20:54;;;;;;;109.90;44.73;;;;;;;0.14;88.22;99740.56;2280579;78;20937;-81
2022/12/03 02:23:55;;;;;;;118.57;48.50;;;;;;;0.14;88.26;99735.42;2280517;78;20950;-82
2022/12/03 02:26:55;;;;;;;112.50;45.70;;;;;;;0.13;88.03;99728.52;2280606;78;20926;-80
2022/12/03 02:29:56;;;;;;;107.83;47.67;;;;;;;0.11;88.32;99724.56;2280400;78;20903;-81
2022/12/03 02:32:56;;;;;;;116.37;48.57;;;;;;;0.16;88.46;99726.15;2280799;78;21081;-82
2022/12/03 02:35:57;;;;;;;112.53;47.43;;;;;;;0.16;88.34;99718.45;2280653;78;20969;-82
2022/12/03 02:38:57;;;;;;;115.60;46.50;;;;;;;0.20;88.32;99722.60;2280611;78;20909;-81
2022/12/03 02:42:37;;;;;;;114.67;46.77;;;;;;;0.24;88.36;99718.16;2280472;78;20923;-82
2022/12/03 02:45:16;;;;;;;103.73;44.53;;;;;;;0.30;88.18;99725.38;2280448;78;20937;-80
2022/12/03 02:48:16;;;;;;;106.37;45.30;;;;;;;0.28;88.08;99724.39;2280368;78;20890;-82
2022/12/03 02:51:17;;;;;;;105.17;46.10;;;;;;;0.31;88.27;99724.20;2280457;78;20942;-81
2022/12/03 02:54:17;;;;;;;104.90;46.53;;;;;;;0.32;87.98;99728.94;2280112;78;20926;-80
2022/12/03 02:57:18;;;;;;;110.03;43.67;;;;;;;0.31;88.17;99732.30;2280234;78;21291;-80
2022/12/03 03:00:18;;;;;;;99.67;44.40;;;;;;;0.28;87.87;99726.56;2280087;78;20985;-81
2022/12/03 03:03:18;;;;;;;101.33;45.53;;;;;;;0.26;88.00;99727.25;2280316;78;20930;-81
2022/12/03 03:06:19;;;;;;;101.07;45.27;;;;;;;0.28;88.19;99734.27;2279902;78;20981;-81
2022/12/03 03:09:19;;;;;;;121.00;46.07;;;;;;;0.29;88.01;99730.02;2280084;78;20891;-81
2022/12/03 03:12:20;;;;;;;107.47;46.90;;;;;;;0.30;87.99;99720.25;2280180;78;20899;-81
2022/12/03 03:15:20;;;;;;;112.40;46.43;;;;;;;0.32;88.16;99710.97;2280168;78;20934;-81
2022/12/03 03:18:20;;;;;;;108.47;45.53;;;;;;;0.37;87.95;99724.11;2280094;78;21291;-80
2022/12/03 03:21:21;;;;;;;105.77;44.33;;;;;;;0.40;88.10;99723.02;2280048;78;20887;-81
2022/12/03 03:24:21;;;;;;;112.23;47.37;;;;;;;0.39;87.88;99718.28;2280078;78;20903;-80
2022/12/03 03:27:22;;;;;;;96.87;44.00;;;;;;;0.39;87.74;99718.28;2279797;78;20894;-81
2022/12/03 03:30:22;;;;;;;106.07;45.17;;;;;;;0.35;87.72;99731.71;2280142;78;20946;-80
2022/12/03 03:33:22;;;;;;;111.00;46.97;;;;;;;0.34;87.75;99729.05;2280135;78;20867;-81
2022/12/03 03:36:23;;;;;;;108.70;43.93;;;;;;;0.35;87.87;99731.71;2279998;78;20938;-81
2022/12/03 03:39:23;;;;;;;98.17;43.80;;;;;;;0.39;87.96;99723.42;2280023;78;20905;-81
2022/12/03 03:42:24;;;;;;;108.43;45.13;;;;;;;0.39;87.81;99728.95;2280115;78;20961;-81
2022/12/03 03:45:24;;;;;;;101.60;44.57;;;;;;;0.40;87.93;99731.62;2279979;78;20935;-81
2022/12/03 03:48:24;;;;;;;107.20;45.93;;;;;;;0.43;87.90;99739.92;2280306;78;20930;-81
2022/12/03 03:51:25;;;;;;;111.43;45.47;;;;;;;0.46;88.02;99741.01;2280321;78;20918;-82
2022/12/03 03:54:25;;;;;;;113.30;48.20;;;;;;;0.49;87.88;99737.36;2280246;78;20926;-81
2022/12/03 03:57:26;;;;;;;98.63;43.83;;;;;;;0.54;88.01;99739.83;2280200;78;20871;-82
2022/12/03 04:00:26;;;;;;;113.37;45.80;;;;;;;0.58;87.82;99729.36;2255746;78;20945;-81
2022/12/03 04:03:29;;;;;;;109.70;48.03;;;;;;;0.60;87.56;99727.38;2235358;79;20910;-83
2022/12/03 04:06:30;;;;;;;116.93;45.53;;;;;;;0.60;87.65;99718.39;2235165;79;20961;-80
2022/12/03 04:09:30;;;;;;;115.03;46.97;;;;;;;0.65;87.54;99727.68;2235493;79;20910;-81
2022/12/03 04:15:49;;;;;;;104.73;46.37;;;;;;;0.71;87.35;99728.08;2235591;80;20913;-81
2022/12/03 04:18:49;;;;;;;105.03;44.73;;;;;;;0.71;87.49;99724.22;2235154;79;20938;-81
2022/12/03 04:38:23;;;;;;;107.83;46.03;;;;;;;0.89;86.97;99711.29;2234905;77;21397;-83
2022/12/03 04:41:23;;;;;;;108.87;45.77;;;;;;;0.92;87.96;99715.73;2235063;79;20958;-84
2022/12/03 04:44:35;;;;;;;108.20;45.97;;;;;;;0.92;87.27;99727.30;2235190;79;20910;-81
2022/12/03 04:47:33;;;;;;;116.87;46.43;;;;;;;0.87;86.98;99726.13;2235234;79;20941;-84
2022/12/03 04:50:34;;;;;;;106.73;47.27;;;;;;;0.86;87.09;99726.87;2235282;79;20910;-83
2022/12/03 04:53:34;;;;;;;108.17;45.43;;;;;;;0.88;87.02;99730.47;2234661;79;21266;-83
2022/12/03 04:56:34;;;;;;;113.30;45.67;;;;;;;0.87;86.92;99728.30;2234205;79;20946;-83
2022/12/03 04:59:35;;;;;;;124.70;48.47;;;;;;;0.88;87.00;99730.47;2234670;78;21000;-83
2022/12/03 05:02:35;;;;;;;105.90;44.93;;;;;;;0.90;86.89;99723.35;2235031;79;20930;-82
2022/12/03 05:05:36;;;;;;;105.67;45.80;;;;;;;0.89;86.86;99725.82;2234666;80;20898;-82
2022/12/03 05:08:36;;;;;;;114.33;44.33;;;;;;;0.88;86.81;99727.91;2234213;79;20958;-84
2022/12/03 05:11:36;;;;;;;122.93;48.40;;;;;;;0.90;87.18;99735.31;2234698;79;20906;-83
2022/12/03 05:14:37;;;;;;;114.23;47.80;;;;;;;0.93;87.21;99734.22;2234005;79;20930;-82
2022/12/03 05:17:37;;;;;;;111.63;44.83;;;;;;;0.95;87.08;99737.78;2233877;79;20914;-82
2022/12/03 05:20:44;;;;;;;114.80;45.83;;;;;;;0.96;86.99;99727.98;2233873;79;20890;-82
2022/12/03 05:23:44;;;;;;;108.17;44.00;;;;;;;1.01;86.97;99733.42;2233733;79;20914;-83
2022/12/03 05:26:44;;;;;;;103.97;45.17;;;;;;;1.00;86.74;99736.78;2233828;79;20922;-83
2022/12/03 05:29:45;;;;;;;102.63;44.87;;;;;;;1.00;86.94;99735.11;2233126;79;20910;-83
2022/12/03 05:32:45;;;;;;;109.07;46.37;;;;;;;1.00;86.86;99732.93;2233896;79;20910;-83
2022/12/03 05:35:46;;;;;;;113.13;46.13;;;;;;;0.99;86.80;99729.47;2233625;79;20917;-84
2022/12/03 05:38:46;;;;;;;113.07;45.13;;;;;;;0.95;86.74;99730.06;2233585;79;20981;-83
2022/12/03 05:45:05;;;;;;;107.57;44.27;;;;;;;0.90;86.98;99714.75;2233879;80;21352;-80
2022/12/03 05:48:06;;;;;;;113.70;46.63;;;;;;;0.89;87.13;99706.15;2233986;79;20879;-82
2022/12/03 05:51:06;;;;;;;106.63;44.50;;;;;;;0.91;87.20;99716.13;2234332;79;20906;-84
2022/12/03 05:54:07;;;;;;;104.57;44.43;;;;;;;0.91;87.27;99710.10;2234671;79;20930;-81
2022/12/03 05:57:07;;;;;;;104.20;45.20;;;;;;;0.87;87.27;99711.59;2234791;80;21314;-83
2022/12/03 06:00:08;;;;;;;99.67;43.53;;;;;;;1.38;89.60;99706.63;2247851;78;20919;-85
2022/12/03 06:03:08;;;;;;;100.07;42.20;;;;;;;1.29;87.43;99709.92;2279724;78;20993;-82
2022/12/03 06:06:08;;;;;;;104.47;44.33;;;;;;;1.14;87.19;99714.12;2279884;78;20958;-81
2022/12/03 06:09:09;;;;;;;99.40;41.87;;;;;;;1.15;89.26;99715.50;2280142;78;20914;-83
2022/12/03 06:12:09;;;;;;;106.10;50.27;;;;;;;1.18;87.82;99716.09;2279995;78;20910;-83
2022/12/03 06:15:09;;;;;;;94.30;40.43;;;;;;;1.14;87.34;99705.11;2279498;78;20950;-87
2022/12/03 06:18:10;;;;;;;99.30;41.77;;;;;;;1.03;87.15;99704.45;2279376;78;20942;-87
2022/12/03 06:21:10;;;;;;;88.37;39.07;;;;;;;1.00;87.45;99704.25;2280108;78;20911;-85
2022/12/03 06:24:13;;;;;;;95.77;41.40;;;;;;;0.97;87.51;99710.48;2259313;78;20914;-88
2022/12/03 06:27:19;;;;;;;88.47;39.30;;;;;;;1.01;87.71;99712.86;2281197;78;20871;-84
2022/12/03 06:30:19;;;;;;;98.47;40.47;;;;;;;1.02;87.64;99705.23;2281091;78;20887;-84
2022/12/03 06:33:20;;;;;;;90.87;38.60;;;;;;;1.01;87.46;99706.03;2280305;78;20902;-86
2022/12/03 06:36:20;;;;;;;79.53;36.27;;;;;;;0.96;87.54;99711.28;2279495;78;21283;-87
2022/12/03 06:39:21;;;;;;;85.27;38.23;;;;;;;0.96;87.70;99706.14;2279523;78;20942;-87
2022/12/03 06:42:21;;;;;;;89.60;40.40;;;;;;;1.00;87.68;99699.51;2279812;78;20934;-86
2022/12/03 06:45:21;;;;;;;80.03;35.63;;;;;;;0.98;87.71;99696.84;2280498;78;20895;-85
2022/12/03 06:48:24;;;;;;;82.80;35.73;;;;;;;0.94;87.53;99692.30;2280921;78;20910;-86
2022/12/03 06:51:25;;;;;;;90.23;37.17;;;;;;;0.93;87.81;99702.09;2280587;78;20974;-87
2022/12/03 06:54:26;;;;;;;87.37;38.07;;;;;;;0.91;87.80;99703.67;2280078;78;21101;-83
2022/12/03 06:57:26;;;;;;;90.30;39.13;;;;;;;0.94;88.10;99707.33;2280492;78;20949;-86
2022/12/03 07:00:27;;;;;;;84.03;37.20;;;;;;;1.02;88.05;99707.81;2279033;78;20965;-87
2022/12/03 07:03:27;;;;;;;79.13;35.97;;;;;;;1.06;87.93;99714.92;2276467;78;20997;-86
2022/12/03 07:06:28;;;;;;;84.97;36.27;;;;;;;1.10;87.83;99718.58;2276038;78;21331;-85
2022/12/03 07:09:28;;;;;;;82.77;36.13;;;;;;;1.15;87.71;99718.06;2276027;78;20939;-85
2022/12/03 07:12:28;;;;;;;83.73;36.37;;;;;;;1.18;87.61;99715.69;2275984;78;20949;-85
2022/12/03 07:15:29;;;;;;;81.53;37.57;;;;;;;1.23;87.38;99712.12;2275359;78;21346;-85
2022/12/03 07:18:29;;;;;;;90.00;38.87;;;;;;;1.30;87.44;99709.53;2275147;78;20915;-86
2022/12/03 07:21:30;;;;;;;87.63;38.30;;;;;;;1.35;87.25;99711.59;2275274;78;20978;-84
2022/12/03 07:24:30;;;;;;;90.43;37.27;;;;;;;1.40;87.09;99711.87;2275123;78;21275;-85
2022/12/03 07:27:31;;;;;;;84.37;38.80;;;;;;;1.46;87.05;99710.96;2275352;78;20903;-84
2022/12/03 07:30:31;;;;;;;85.67;37.50;;;;;;;1.50;86.76;99709.06;2275682;78;20926;-84
2022/12/03 07:33:31;;;;;;;92.20;39.20;;;;;;;1.41;86.70;99696.92;2275301;78;20911;-84
2022/12/03 07:36:32;;;;;;;85.50;36.40;;;;;;;1.43;87.08;99694.94;2275918;78;20907;-84
2022/12/03 07:39:32;;;;;;;84.67;37.13;;;;;;;1.48;87.22;99702.94;2275047;78;21179;-85
2022/12/03 07:42:33;;;;;;;84.50;37.97;;;;;;;1.50;87.22;99706.48;2275252;78;20986;-80
2022/12/03 07:45:33;;;;;;;82.83;37.30;;;;;;;1.44;87.17;99716.41;2275924;78;20968;-86
2022/12/03 07:48:34;;;;;;;80.73;35.83;;;;;;;1.48;87.46;99724.80;2276022;78;20907;-85
2022/12/03 07:51:34;;;;;;;85.87;36.73;;;;;;;1.47;87.25;99725.20;2275335;78;21558;-85
2022/12/03 07:54:34;;;;;;;92.63;37.77;;;;;;;1.46;87.32;99732.43;2275797;78;20922;-85
2022/12/03 07:57:35;;;;;;;94.20;37.80;;;;;;;1.46;87.31;99729.86;2275572;78;20922;-84
2022/12/03 08:00:35;;;;;;;91.47;38.80;;;;;;;1.43;87.34;99731.35;2264284;78;20992;-84
2022/12/03 08:03:36;;;;;;;92.33;37.87;;;;;;;1.41;87.40;99730.37;2234489;79;21293;-85
2022/12/03 08:06:36;;;;;;;96.80;40.03;;;;;;;1.48;87.80;99733.81;2234576;79;20933;-84
2022/12/03 08:09:36;;;;;;;96.83;38.53;;;;;;;1.57;87.32;99725.37;2234121;80;20941;-84
2022/12/03 08:12:40;;;;;;;101.97;38.90;;;;;;;1.59;87.38;99727.23;2233984;79;20890;-84
2022/12/03 08:15:40;;;;;;;97.97;38.63;;;;;;;1.64;87.34;99731.38;2233973;79;20898;-83
2022/12/03 08:18:41;;;;;;;101.10;40.63;;;;;;;1.74;87.32;99733.75;2234413;79;21298;-83
2022/12/03 08:21:41;;;;;;;102.67;38.63;;;;;;;1.84;87.34;99737.77;2233999;79;20968;-82
2022/12/03 08:24:41;;;;;;;109.37;41.83;;;;;;;1.91;87.01;99733.47;2234400;79;21302;-83
2022/12/03 08:27:44;;;;;;;111.33;43.10;;;;;;;1.94;86.82;99737.52;2234847;79;20917;-86
2022/12/03 08:30:45;;;;;;;110.77;43.97;;;;;;;1.99;86.95;99737.79;2234918;79;20918;-84
2022/12/03 08:33:45;;;;;;;107.87;43.20;;;;;;;2.03;86.78;99738.47;2234798;79;20965;-84
2022/12/03 08:36:45;;;;;;;116.63;45.47;;;;;;;2.07;86.71;99732.70;2234941;79;20922;-84
2022/12/03 08:39:47;;;;;;;103.03;38.60;;;;;;;2.07;86.71;99732.70;2234547;79;20914;-84
2022/12/03 08:42:46;;;;;;;112.87;43.30;;;;;;;2.09;86.58;99731.10;2234587;79;20989;-84
2022/12/03 08:45:48;;;;;;;117.53;45.27;;;;;;;2.08;86.60;99736.65;2233964;79;21091;-85
2022/12/03 08:48:47;;;;;;;121.20;45.07;;;;;;;2.06;86.48;99729.23;2234159;79;20926;-84
2022/12/03 08:51:47;;;;;;;127.27;45.40;;;;;;;2.09;86.46;99729.81;2234475;79;21227;-86
2022/12/03 08:54:48;;;;;;;116.60;44.27;;;;;;;2.13;86.48;99724.05;2234446;80;20926;-85
2022/12/03 08:57:48;;;;;;;125.83;44.10;;;;;;;2.18;86.54;99727.78;2233956;80;20961;-84
2022/12/03 09:00:49;;;;;;;127.13;45.57;;;;;;;2.20;86.42;99728.76;2246279;78;20958;-84
2022/12/03 09:03:49;;;;;;;124.87;45.97;;;;;;;2.21;86.43;99739.15;2278263;78;20941;-83
2022/12/03 09:06:49;;;;;;;121.60;45.87;;;;;;;2.23;86.52;99735.38;2278122;78;20903;-84
2022/12/03 09:09:50;;;;;;;128.67;47.10;;;;;;;2.21;86.06;99736.97;2278460;78;20923;-83
2022/12/03 09:12:50;;;;;;;127.33;46.47;;;;;;;2.19;86.39;99728.27;2278844;78;21270;-84
2022/12/03 09:15:51;;;;;;;130.37;48.27;;;;;;;2.14;86.46;99728.40;2279227;78;20918;-83
2022/12/03 09:18:51;;;;;;;124.90;46.10;;;;;;;2.15;86.51;99718.19;2280153;78;20982;-83
2022/12/03 09:21:51;;;;;;;131.40;48.40;;;;;;;2.18;86.43;99720.05;2279944;78;21302;-83
2022/12/03 09:24:52;;;;;;;133.07;47.90;;;;;;;2.14;86.53;99716.80;2280186;78;21122;-83
2022/12/03 09:27:52;;;;;;;110.63;43.63;;;;;;;2.13;86.48;99725.33;2279708;78;20957;-87
2022/12/03 09:30:53;;;;;;;123.43;47.33;;;;;;;2.13;86.45;99718.89;2280298;78;20914;-84
2022/12/03 09:33:53;;;;;;;118.60;43.57;;;;;;;2.07;86.62;99724.97;2280153;78;21302;-84
2022/12/03 09:36:54;;;;;;;123.97;45.53;;;;;;;2.12;86.78;99718.41;2280646;78;20906;-83
2022/12/03 09:39:54;;;;;;;128.57;48.70;;;;;;;2.16;86.84;99719.96;2280456;78;20899;-84
2022/12/03 09:42:57;;;;;;;120.10;46.27;;;;;;;2.18;86.83;99719.66;2280875;78;21406;-83
2022/12/03 09:45:58;;;;;;;122.90;46.70;;;;;;;2.23;87.02;99717.34;2280969;78;20942;-83
2022/12/03 09:48:58;;;;;;;125.17;48.53;;;;;;;2.26;86.94;99722.67;2280740;78;20883;-84
2022/12/03 09:51:58;;;;;;;122.77;48.37;;;;;;;2.32;86.74;99724.72;2280992;78;20938;-86
2022/12/03 09:54:59;;;;;;;123.53;48.23;;;;;;;2.34;86.75;99718.86;2280371;78;20915;-85
2022/12/03 09:57:59;;;;;;;119.53;44.90;;;;;;;2.40;86.78;99732.09;2280796;78;20911;-84
2022/12/03 10:01:00;;;;;;;125.57;47.70;;;;;;;2.43;86.61;99732.27;2268364;78;20922;-85
2022/12/03 10:04:00;;;;;;;121.40;49.47;;;;;;;2.40;86.48;99730.80;2235602;79;21254;-84
2022/12/03 10:07:01;;;;;;;126.10;47.87;;;;;;;2.32;86.47;99723.03;2235284;79;20962;-84
2022/12/03 10:10:01;;;;;;;122.00;47.70;;;;;;;2.32;86.73;99716.59;2235155;79;20886;-84
2022/12/03 10:13:01;;;;;;;123.47;48.17;;;;;;;2.37;86.68;99719.03;2235080;79;20938;-84
2022/12/03 10:16:02;;;;;;;127.90;49.50;;;;;;;2.39;86.71;99712.68;2236212;79;20922;-85
2022/12/03 10:19:02;;;;;;;121.63;48.67;;;;;;;2.38;86.81;99711.80;2236302;79;20909;-85
2022/12/03 10:22:02;;;;;;;125.70;46.93;;;;;;;2.45;87.01;99713.03;2236077;79;20930;-86
2022/12/03 10:25:03;;;;;;;124.00;48.93;;;;;;;2.49;86.75;99715.88;2235587;79;20914;-84
2022/12/03 10:28:04;;;;;;;116.13;47.23;;;;;;;2.54;86.66;99711.87;2235514;79;20866;-85
2022/12/03 10:31:04;;;;;;;108.87;46.13;;;;;;;2.55;86.36;99721.38;2235544;79;21266;-84
2022/12/03 10:34:04;;;;;;;119.43;47.40;;;;;;;2.53;86.11;99714.36;2235605;79;20922;-83
2022/12/03 10:37:05;;;;;;;120.10;46.13;;;;;;;2.51;86.12;99714.27;2234862;80;20930;-83
2022/12/03 10:40:07;;;;;;;108.53;44.73;;;;;;;2.44;86.24;99706.09;2235409;79;21326;-83
2022/12/03 10:43:05;;;;;;;108.00;44.00;;;;;;;2.46;86.46;99707.97;2235843;79;20930;-84
2022/12/03 10:46:06;;;;;;;114.50;46.17;;;;;;;2.53;86.48;99696.31;2235466;79;20954;-82
2022/12/03 10:49:06;;;;;;;114.00;45.37;;;;;;;2.56;86.42;99702.53;2235316;79;20906;-85
2022/12/03 10:52:07;;;;;;;117.50;47.13;;;;;;;2.59;86.52;99699.64;2235227;79;20922;-85
2022/12/03 10:55:07;;;;;;;122.03;47.33;;;;;;;2.62;86.49;99696.87;2235274;79;20918;-84
2022/12/03 10:58:07;;;;;;;122.67;47.47;;;;;;;2.65;86.21;99697.44;2235769;79;20906;-84
2022/12/03 11:01:08;;;;;;;120.43;48.03;;;;;;;2.67;86.26;99704.46;2245802;78;20950;-84
2022/12/03 11:04:08;;;;;;;116.83;47.30;;;;;;;2.71;86.27;99700.37;2280202;78;20961;-84
2022/12/03 11:07:09;;;;;;;111.40;46.87;;;;;;;2.76;86.24;99704.98;2279218;78;21361;-84
2022/12/03 11:10:09;;;;;;;122.80;49.90;;;;;;;2.73;86.30;99702.63;2278446;78;20954;-83
2022/12/03 11:13:10;;;;;;;120.70;47.17;;;;;;;2.78;86.24;99697.33;2278596;78;20938;-85
2022/12/03 11:16:10;;;;;;;124.97;49.73;;;;;;;2.79;86.03;99693.55;2278629;78;20903;-84
2022/12/03 11:19:10;;;;;;;126.40;48.93;;;;;;;2.75;85.84;99695.87;2278922;78;20919;-84
2022/12/03 11:22:11;;;;;;;129.00;49.70;;;;;;;2.74;86.15;99695.38;2278204;78;21293;-83
2022/12/03 11:25:11;;;;;;;128.37;50.83;;;;;;;2.78;86.10;99694.35;2277927;78;20922;-84
2022/12/03 11:28:12;;;;;;;119.43;47.33;;;;;;;2.72;85.86;99693.12;2279293;78;21306;-83
2022/12/03 11:31:13;;;;;;;132.60;49.83;;;;;;;2.73;86.30;99688.45;2279274;78;20907;-83
2022/12/03 11:34:12;;;;;;;116.33;46.07;;;;;;;2.73;86.35;99690.63;2278550;78;20879;-83
2022/12/03 11:37:13;;;;;;;97.17;39.00;;;;;;;2.74;86.27;99691.11;2278916;78;20914;-83
2022/12/03 11:40:13;;;;;;;100.93;41.17;;;;;;;2.69;85.78;99687.39;2279091;78;21374;-83
2022/12/03 11:43:14;;;;;;;103.00;41.23;;;;;;;2.67;85.86;99687.70;2279467;78;20906;-82
2022/12/03 11:46:14;;;;;;;104.33;43.77;;;;;;;2.66;86.13;99682.06;2279728;78;20918;-83
2022/12/03 11:49:14;;;;;;;96.73;42.07;;;;;;;2.67;85.77;99686.81;2279151;78;20910;-84
2022/12/03 11:52:15;;;;;;;96.10;41.10;;;;;;;2.63;85.84;99684.87;2279059;78;21227;-85
2022/12/03 11:55:15;;;;;;;107.53;41.47;;;;;;;2.63;85.94;99678.42;2279694;78;20903;-85
2022/12/03 11:58:16;;;;;;;101.23;41.17;;;;;;;2.58;85.69;99671.69;2280136;78;20871;-85
2022/12/03 12:01:16;;;;;;;104.87;41.00;;;;;;;2.53;86.13;99675.30;2271858;78;20958;-85
2022/12/03 12:04:16;;;;;;;98.90;41.87;;;;;;;2.53;86.19;99671.43;2235090;79;20910;-83
2022/12/03 12:07:17;;;;;;;101.10;41.53;;;;;;;2.60;86.31;99676.56;2234767;79;20954;-85
2022/12/03 12:10:17;;;;;;;78.10;34.13;;;;;;;2.63;86.19;99674.56;2235064;79;21029;-84
2022/12/03 12:13:18;;;;;;;81.97;35.90;;;;;;;2.65;85.73;99679.40;2234937;79;21282;-85
2022/12/03 12:16:18;;;;;;;86.47;36.37;;;;;;;2.65;85.81;99680.69;2234486;79;20906;-85
2022/12/03 12:19:19;;;;;;;87.07;36.70;;;;;;;2.65;85.75;99681.58;2234357;80;20953;-85
2022/12/03 12:22:19;;;;;;;92.47;38.57;;;;;;;2.64;85.66;99682.38;2234819;79;20957;-84
2022/12/03 12:25:19;;;;;;;87.13;38.00;;;;;;;2.68;85.97;99680.86;2234682;79;20910;-84
2022/12/03 12:28:20;;;;;;;93.83;39.50;;;;;;;2.73;86.23;99678.14;2234814;79;21309;-83
2022/12/03 12:31:20;;;;;;;98.83;42.40;;;;;;;2.77;86.07;99680.08;2234702;79;20894;-83
2022/12/03 12:34:21;;;;;;;99.47;42.37;;;;;;;2.74;85.63;99680.80;2234533;79;20918;-83
2022/12/03 12:37:21;;;;;;;102.57;43.73;;;;;;;2.72;85.80;99675.96;2234729;79;20973;-84
2022/12/03 12:40:22;;;;;;;107.17;41.43;;;;;;;2.66;85.70;99673.44;2234966;80;20981;-83
2022/12/03 12:43:22;;;;;;;114.07;45.80;;;;;;;2.66;86.06;99674.73;2234240;80;21360;-83
2022/12/03 12:46:23;;;;;;;107.90;43.57;;;;;;;2.56;85.85;99670.72;2234999;79;20938;-83
2022/12/03 12:49:25;;;;;;;114.80;46.00;;;;;;;2.53;86.21;99671.43;2235202;79;20937;-84
2022/12/03 12:52:24;;;;;;;102.63;44.37;;;;;;;2.55;86.45;99671.52;2235418;79;20929;-83
2022/12/03 12:55:24;;;;;;;117.30;44.73;;;;;;;2.58;86.54;99678.53;2235361;80;20911;-84
2022/12/03 12:58:24;;;;;;;116.90;47.60;;;;;;;2.61;86.42;99680.92;2235192;79;20933;-84
2022/12/03 13:01:25;;;;;;;113.73;47.23;;;;;;;2.58;86.32;99683.29;2234670;78;21325;-83
2022/12/03 13:04:25;;;;;;;116.10;48.60;;;;;;;2.53;85.93;99681.73;2235042;79;20953;-82
2022/12/03 13:07:26;;;;;;;114.47;48.93;;;;;;;2.49;86.13;99678.91;2234960;80;20894;-84
2022/12/03 13:10:27;;;;;;;118.90;49.27;;;;;;;2.49;86.15;99688.81;2234814;79;20958;-82
2022/12/03 13:13:26;;;;;;;112.00;49.73;;;;;;;2.44;86.09;99693.22;2234795;79;20953;-83
2022/12/03 13:16:27;;;;;;;114.83;47.40;;;;;;;2.38;86.38;99701.48;2234972;79;20954;-83
2022/12/03 13:19:27;;;;;;;115.37;49.47;;;;;;;2.36;86.59;99691.48;2235211;79;21099;-83
2022/12/03 13:22:28;;;;;;;114.83;50.30;;;;;;;2.36;86.76;99694.06;2235015;79;20953;-84
2022/12/03 13:25:28;;;;;;;129.50;52.60;;;;;;;2.35;86.63;99700.02;2235204;79;21321;-84
2022/12/03 13:28:29;;;;;;;119.40;49.70;;;;;;;2.31;86.76;99694.20;2235230;80;21313;-84
2022/12/03 13:31:29;;;;;;;117.87;49.07;;;;;;;2.28;86.87;99690.16;2235050;79;20874;-84
2022/12/03 13:34:34;;;;;;;120.30;51.23;;;;;;;2.27;87.17;99688.38;2234907;79;21306;-84
2022/12/03 13:37:32;;;;;;;116.67;47.60;;;;;;;2.27;87.37;99687.09;2212098;80;20961;-82
2022/12/03 13:40:35;;;;;;;115.23;48.03;;;;;;;2.28;87.26;99694.02;2234674;79;20934;-81
2022/12/03 13:43:39;;;;;;;115.53;48.70;;;;;;;2.30;87.19;99701.44;2234610;79;20965;-82
2022/12/03 13:46:38;;;;;;;115.30;47.57;;;;;;;2.26;86.92;99702.06;2234327;79;21243;-83
2022/12/03 13:49:42;;;;;;;109.90;47.70;;;;;;;2.20;87.23;99697.84;2233974;79;20956;-82
2022/12/03 13:52:42;;;;;;;106.17;45.83;;;;;;;2.12;87.19;99700.38;2234018;80;20906;-82
2022/12/03 13:55:43;;;;;;;104.10;45.03;;;;;;;2.11;87.52;99697.31;2234142;79;20922;-83
2022/12/03 13:58:43;;;;;;;105.60;45.97;;;;;;;2.13;87.51;99693.14;2234166;79;20952;-82
2022/12/03 14:01:44;;;;;;;99.50;44.57;;;;;;;2.10;87.36;99683.55;2243889;78;20965;-82
2022/12/03 14:04:44;;;;;;;106.03;45.60;;;;;;;2.10;87.36;99683.55;2279940;78;20898;-82
2022/12/03 14:07:44;;;;;;;103.57;44.67;;;;;;;2.17;87.74;99684.79;2279852;78;20906;-83
2022/12/03 14:10:45;;;;;;;106.93;45.73;;;;;;;2.19;87.55;99685.77;2279408;78;20977;-84
2022/12/03 14:13:45;;;;;;;117.60;46.97;;;;;;;2.15;87.52;99684.70;2279649;78;20891;-84
2022/12/03 14:16:46;;;;;;;117.23;45.80;;;;;;;2.14;87.80;99694.91;2279971;78;20867;-85